Time,TemperatureF,DewpointF,PressureIn,WindDirection,WindDirectionDegrees,WindSpeedMPH,WindSpeedGustMPH,Humidity,HourlyPrecipIn,Conditions,Clouds,dailyrainin,SoftwareType,DateUTC
2013-04-02 00:08:00,53.6,51.0,30.03,NNE,20,0.0,0.0,91,0.00,,,0.00,weatherlink.com 1.10,2013-04-02 05:08:00,
2013-04-02 00:24:00,53.2,51.0,30.04,NNE,20,0.0,0.0,91,0.00,,,0.00,weatherlink.com 1.10,2013-04-02 05:24:00,
2013-04-02 00:39:00,52.6,50.0,30.04,NNE,20,0.0,0.0,91,0.00,,,0.00,weatherlink.com 1.10,2013-04-02 05:39:00,
2013-04-02 00:54:00,52.4,50.0,30.03,NNE,20,0.0,0.0,92,0.00,,,0.00,weatherlink.com 1.10,2013-04-02 05:54:00,
2013-04-02 01:09:00,52.1,50.0,30.04,NNE,20,0.0,0.0,92,0.00,,,0.00,weatherlink.com 1.10,2013-04-02 06:09:00,
2013-04-02 01:24:00,52.0,50.0,30.04,NNE,20,0.0,0.0,93,0.00,,,0.00,weatherlink.com 1.10,2013-04-02 06:24:00,
2013-04-02 01:39:00,51.6,50.0,30.04,ENE,68,0.0,2.0,93,0.00,,,0.00,weatherlink.com 1.10,2013-04-02 06:39:00,
2013-04-02 01:54:00,51.8,50.0,30.03,ENE,66,0.0,0.0,93,0.00,,,0.00,weatherlink.com 1.10,2013-04-02 06:54:00,
2013-04-02 02:09:00,52.1,50.0,30.03,ENE,67,0.0,0.0,93,0.00,,,0.00,weatherlink.com 1.10,2013-04-02 07:09:00,
2013-04-02 02:24:00,52.3,50.0,30.03,NE,37,0.0,1.0,92,0.00,,,0.00,weatherlink.com 1.10,2013-04-02 07:24:00,
2013-04-02 02:39:00,52.5,50.0,30.02,NE,35,0.0,1.0,90,0.00,,,0.00,weatherlink.com 1.10,2013-04-02 07:39:00,
2013-04-02 02:54:00,52.4,50.0,30.02,North,353,0.0,1.0,90,0.00,,,0.00,weatherlink.com 1.10,2013-04-02 07:54:00,
2013-04-02 03:09:00,52.4,50.0,30.02,North,353,0.0,1.0,90,0.00,,,0.00,weatherlink.com 1.10,2013-04-02 08:09:00,
2013-04-02 03:24:00,52.0,49.0,30.02,NNW,340,0.0,0.0,90,0.00,,,0.00,weatherlink.com 1.10,2013-04-02 08:24:00,
2013-04-02 03:39:00,51.6,49.0,30.02,NNW,340,0.0,1.0,90,0.00,,,0.00,weatherlink.com 1.10,2013-04-02 08:39:00,
2013-04-02 03:54:00,51.1,49.0,30.02,NNW,340,0.0,1.0,91,0.00,,,0.00,weatherlink.com 1.10,2013-04-02 08:54:00,
2013-04-02 04:09:00,50.8,48.0,30.01,NNW,340,0.0,0.0,91,0.00,,,0.00,weatherlink.com 1.10,2013-04-02 09:09:00,
2013-04-02 04:24:00,50.5,48.0,30.01,NNW,340,0.0,0.0,91,0.00,,,0.00,weatherlink.com 1.10,2013-04-02 09:24:00,
2013-04-02 04:39:00,50.3,48.0,30.02,NNW,340,0.0,0.0,92,0.00,,,0.00,weatherlink.com 1.10,2013-04-02 09:39:00,
2013-04-02 04:54:00,49.8,48.0,30.02,NNW,340,0.0,0.0,92,0.00,,,0.00,weatherlink.com 1.10,2013-04-02 09:54:00,
2013-04-02 05:09:00,49.5,47.0,30.02,NNW,340,0.0,0.0,92,0.00,,,0.00,weatherlink.com 1.10,2013-04-02 10:09:00,
2013-04-02 05:24:00,49.4,48.0,30.02,NNW,340,0.0,0.0,93,0.00,,,0.00,weatherlink.com 1.10,2013-04-02 10:24:00,
2013-04-02 05:39:00,49.4,48.0,30.03,NNW,340,0.0,0.0,93,0.00,,,0.00,weatherlink.com 1.10,2013-04-02 10:39:00,
2013-04-02 05:54:00,49.4,47.0,30.04,NNW,340,0.0,1.0,92,0.00,,,0.00,weatherlink.com 1.10,2013-04-02 10:54:00,
2013-04-02 06:09:00,49.5,47.0,30.05,NNW,340,0.0,0.0,92,0.00,,,0.00,weatherlink.com 1.10,2013-04-02 11:09:00,
2013-04-02 06:24:00,49.5,47.0,30.05,NNW,340,0.0,0.0,92,0.00,,,0.00,weatherlink.com 1.10,2013-04-02 11:24:00,
2013-04-02 06:39:00,49.3,47.0,30.05,NNW,340,0.0,1.0,92,0.00,,,0.00,weatherlink.com 1.10,2013-04-02 11:39:00,
2013-04-02 06:54:00,49.3,47.0,30.06,NNW,340,0.0,1.0,92,0.00,,,0.00,weatherlink.com 1.10,2013-04-02 11:54:00,
2013-04-02 07:09:00,49.2,47.0,30.08,NNW,340,0.0,0.0,92,0.00,,,0.00,weatherlink.com 1.10,2013-04-02 12:09:00,
2013-04-02 07:25:00,49.5,48.0,30.08,NNW,340,0.0,0.0,93,0.00,,,0.00,weatherlink.com 1.10,2013-04-02 12:25:00,
2013-04-02 07:40:00,51.2,49.0,30.09,NNE,25,0.0,1.0,91,0.00,,,0.00,weatherlink.com 1.10,2013-04-02 12:40:00,
2013-04-02 07:55:00,52.9,50.0,30.08,NNE,25,0.0,1.0,89,0.00,,,0.00,weatherlink.com 1.10,2013-04-02 12:55:00,
2013-04-02 08:10:00,54.4,50.0,30.09,NE,56,0.0,1.0,85,0.00,,,0.00,weatherlink.com 1.10,2013-04-02 13:10:00,
2013-04-02 08:25:00,55.3,50.0,30.09,North,8,1.0,2.0,83,0.00,,,0.00,weatherlink.com 1.10,2013-04-02 13:25:00,
2013-04-02 08:40:00,56.4,51.0,30.09,ENE,68,1.0,2.0,83,0.00,,,0.00,weatherlink.com 1.10,2013-04-02 13:40:00,
2013-04-02 08:55:00,58.0,52.0,30.09,ENE,68,0.0,3.0,79,0.00,,,0.00,weatherlink.com 1.10,2013-04-02 13:55:00,
2013-04-02 09:10:00,59.9,52.0,30.09,ESE,110,2.0,3.0,76,0.00,,,0.00,weatherlink.com 1.10,2013-04-02 14:10:00,
2013-04-02 09:25:00,61.0,52.0,30.09,ESE,110,2.0,3.0,73,0.00,,,0.00,weatherlink.com 1.10,2013-04-02 14:25:00,
2013-04-02 09:40:00,62.1,53.0,30.09,ENE,77,0.0,5.0,73,0.00,,,0.00,weatherlink.com 1.10,2013-04-02 14:40:00,
2013-04-02 09:55:00,63.9,53.0,30.09,ESE,122,0.0,5.0,68,0.00,,,0.00,weatherlink.com 1.10,2013-04-02 14:55:00,
2013-04-02 10:10:00,65.8,54.0,30.09,SSE,162,0.0,4.0,66,0.00,,,0.00,weatherlink.com 1.10,2013-04-02 15:10:00,
2013-04-02 10:25:00,67.6,55.0,30.09,East,82,2.0,4.0,64,0.00,,,0.00,weatherlink.com 1.10,2013-04-02 15:25:00,
2013-04-02 10:40:00,68.8,54.0,30.08,ENE,74,1.0,4.0,59,0.00,,,0.00,weatherlink.com 1.10,2013-04-02 15:40:00,
2013-04-02 10:55:00,69.8,55.0,30.08,SSE,152,2.0,4.0,60,0.00,,,0.00,weatherlink.com 1.10,2013-04-02 15:55:00,
2013-04-02 11:10:00,70.2,55.0,30.08,ESE,117,3.0,5.0,58,0.00,,,0.00,weatherlink.com 1.10,2013-04-02 16:10:00,
2013-04-02 11:25:00,72.1,55.0,30.07,SE,129,0.0,3.0,55,0.00,,,0.00,weatherlink.com 1.10,2013-04-02 16:25:00,
2013-04-02 11:40:00,73.2,55.0,30.07,SE,143,1.0,4.0,54,0.00,,,0.00,weatherlink.com 1.10,2013-04-02 16:40:00,
2013-04-02 11:55:00,74.5,54.0,30.06,SSE,153,2.0,6.0,49,0.00,,,0.00,weatherlink.com 1.10,2013-04-02 16:55:00,
2013-04-02 12:11:00,74.6,52.0,30.06,SSE,149,3.0,7.0,46,0.00,,,0.00,weatherlink.com 1.10,2013-04-02 17:11:00,
2013-04-02 12:26:00,74.5,53.0,30.05,ESE,111,0.0,9.0,47,0.00,,,0.00,weatherlink.com 1.10,2013-04-02 17:26:00,
2013-04-02 12:41:00,75.0,52.0,30.05,ESE,113,2.0,6.0,45,0.00,,,0.00,weatherlink.com 1.10,2013-04-02 17:41:00,
2013-04-02 13:11:00,76.0,52.0,30.05,SE,134,2.0,9.0,44,0.00,,,0.00,weatherlink.com 1.10,2013-04-02 18:11:00,
2013-04-02 13:26:00,75.0,53.0,30.04,ENE,59,2.0,5.0,47,0.00,,,0.00,weatherlink.com 1.10,2013-04-02 18:26:00,
2013-04-02 13:41:00,75.8,54.0,30.03,ESE,111,3.0,8.0,47,0.00,,,0.00,weatherlink.com 1.10,2013-04-02 18:41:00,
2013-04-02 13:56:00,75.9,54.0,30.03,SSW,203,2.0,5.0,46,0.00,,,0.00,weatherlink.com 1.10,2013-04-02 18:56:00,
2013-04-02 14:41:00,77.4,52.0,30.01,SSE,158,2.0,8.0,42,0.00,,,0.00,weatherlink.com 1.10,2013-04-02 19:41:00,
2013-04-02 14:56:00,78.8,54.0,30.00,WSW,241,1.0,7.0,42,0.00,,,0.00,weatherlink.com 1.10,2013-04-02 19:56:00,
2013-04-02 15:11:00,78.0,53.0,29.99,SE,128,1.0,5.0,42,0.00,,,0.00,weatherlink.com 1.10,2013-04-02 20:11:00,
2013-04-02 15:41:00,79.0,54.0,29.97,ESE,103,2.0,4.0,42,0.00,,,0.00,weatherlink.com 1.10,2013-04-02 20:41:00,
2013-04-02 16:11:00,79.1,54.0,29.96,West,267,1.0,5.0,42,0.00,,,0.00,weatherlink.com 1.10,2013-04-02 21:11:00,
2013-04-02 16:26:00,78.8,54.0,29.96,South,191,5.0,8.0,42,0.00,,,0.00,weatherlink.com 1.10,2013-04-02 21:26:00,
2013-04-02 16:41:00,79.6,54.0,29.96,South,174,3.0,4.0,42,0.00,,,0.00,weatherlink.com 1.10,2013-04-02 21:41:00,
2013-04-02 16:56:00,79.5,54.0,29.95,SE,128,2.0,4.0,42,0.00,,,0.00,weatherlink.com 1.10,2013-04-02 21:56:00,
2013-04-02 17:11:00,77.9,54.0,29.95,ESE,118,1.0,4.0,43,0.00,,,0.00,weatherlink.com 1.10,2013-04-02 22:11:00,
2013-04-02 17:26:00,76.8,53.0,29.95,ESE,118,2.0,3.0,43,0.00,,,0.00,weatherlink.com 1.10,2013-04-02 22:26:00,
2013-04-02 17:41:00,76.2,53.0,29.95,ESE,118,2.0,3.0,45,0.00,,,0.00,weatherlink.com 1.10,2013-04-02 22:41:00,
2013-04-02 17:56:00,76.7,53.0,29.95,SE,134,2.0,4.0,44,0.00,,,0.00,weatherlink.com 1.10,2013-04-02 22:56:00,
2013-04-02 18:11:00,76.6,53.0,29.95,SSE,148,1.0,3.0,44,0.00,,,0.00,weatherlink.com 1.10,2013-04-02 23:11:00,
2013-04-02 18:26:00,76.8,54.0,29.95,SE,134,1.0,2.0,45,0.00,,,0.00,weatherlink.com 1.10,2013-04-02 23:26:00,
2013-04-02 19:11:00,73.1,56.0,29.95,SE,136,0.0,0.0,55,0.00,,,0.00,weatherlink.com 1.10,2013-04-03 00:11:00,
2013-04-02 19:26:00,71.8,55.0,29.96,SE,136,0.0,0.0,56,0.00,,,0.00,weatherlink.com 1.10,2013-04-03 00:26:00,
2013-04-02 19:41:00,71.4,56.0,29.96,SE,136,0.0,0.0,59,0.00,,,0.00,weatherlink.com 1.10,2013-04-03 00:41:00,
2013-04-02 19:56:00,70.2,56.0,29.96,SE,136,0.0,1.0,62,0.00,,,0.00,weatherlink.com 1.10,2013-04-03 00:56:00,
2013-04-02 20:12:00,70.3,57.0,29.97,SE,136,0.0,0.0,62,0.00,,,0.00,weatherlink.com 1.10,2013-04-03 01:12:00,
2013-04-02 20:26:00,70.5,56.0,29.96,SE,141,0.0,2.0,60,0.00,,,0.00,weatherlink.com 1.10,2013-04-03 01:26:00,
2013-04-02 20:41:00,70.2,55.0,29.97,SE,134,1.0,3.0,59,0.00,,,0.00,weatherlink.com 1.10,2013-04-03 01:41:00,
2013-04-02 20:56:00,70.0,54.0,29.97,SSE,152,1.0,3.0,57,0.00,,,0.00,weatherlink.com 1.10,2013-04-03 01:56:00,
2013-04-02 21:11:00,69.7,54.0,29.98,SE,134,2.0,5.0,57,0.00,,,0.00,weatherlink.com 1.10,2013-04-03 02:11:00,
2013-04-02 21:26:00,69.1,54.0,29.99,South,188,2.0,3.0,59,0.00,,,0.00,weatherlink.com 1.10,2013-04-03 02:26:00,
2013-04-02 21:41:00,68.6,55.0,29.98,SE,139,1.0,3.0,62,0.00,,,0.00,weatherlink.com 1.10,2013-04-03 02:41:00,
2013-04-02 21:56:00,68.0,56.0,29.97,SE,135,0.0,0.0,65,0.00,,,0.00,weatherlink.com 1.10,2013-04-03 02:56:00,
2013-04-02 22:11:00,66.7,55.0,29.96,SE,136,0.0,0.0,67,0.00,,,0.00,weatherlink.com 1.10,2013-04-03 03:11:00,
2013-04-02 22:26:00,65.3,55.0,29.97,SE,135,0.0,0.0,70,0.00,,,0.00,weatherlink.com 1.10,2013-04-03 03:26:00,
2013-04-02 22:42:00,64.2,55.0,29.97,SE,136,0.0,0.0,72,0.00,,,0.00,weatherlink.com 1.10,2013-04-03 03:42:00,
2013-04-02 22:56:00,64.3,55.0,29.97,ENE,58,0.0,1.0,71,0.00,,,0.00,weatherlink.com 1.10,2013-04-03 03:56:00,
2013-04-02 23:11:00,63.7,55.0,29.97,ENE,60,0.0,1.0,72,0.00,,,0.00,weatherlink.com 1.10,2013-04-03 04:11:00,
2013-04-02 23:26:00,63.4,55.0,29.99,SSE,152,1.0,2.0,74,0.00,,,0.00,weatherlink.com 1.10,2013-04-03 04:26:00,
2013-04-02 23:41:00,63.7,55.0,29.97,ESE,117,0.0,1.0,73,0.00,,,0.00,weatherlink.com 1.10,2013-04-03 04:41:00,
2013-04-02 23:56:00,63.7,55.0,29.96,ESE,111,0.0,2.0,74,0.00,,,0.00,weatherlink.com 1.10,2013-04-03 04:56:00,